sensor_id;sensor_type;location;lat;lon;timestamp;pressure;altitude;pressure_sealevel;temperature;humidity
15817;BME280;8009;50.070;8.232;2023-02-28T00:01:31;101122.34;;;2.07;53.01
15817;BME280;8009;50.070;8.232;2023-02-28T00:04:00;101117.13;;;2.03;53.40
15817;BME280;8009;50.070;8.232;2023-02-28T00:06:28;101123.78;;;2.22;52.67
15817;BME280;8009;50.070;8.232;2023-02-28T00:08:56;101125.88;;;2.08;53.09
15817;BME280;8009;50.070;8.232;2023-02-28T00:11:25;101121.75;;;1.93;53.56
15817;BME280;8009;50.070;8.232;2023-02-28T00:13:53;101124.13;;;2.07;53.49
15817;BME280;8009;50.070;8.232;2023-02-28T00:16:23;101117.88;;;2.08;53.32
15817;BME280;8009;50.070;8.232;2023-02-28T00:18:54;101121.22;;;2.16;53.33
15817;BME280;8009;50.070;8.232;2023-02-28T00:21:23;101122.50;;;2.00;53.99
15817;BME280;8009;50.070;8.232;2023-02-28T00:23:51;101124.31;;;1.98;53.72
15817;BME280;8009;50.070;8.232;2023-02-28T00:26:20;101118.09;;;1.99;53.94
15817;BME280;8009;50.070;8.232;2023-02-28T00:28:48;101120.75;;;1.99;54.00
15817;BME280;8009;50.070;8.232;2023-02-28T00:31:18;101119.16;;;1.90;54.25
15817;BME280;8009;50.070;8.232;2023-02-28T00:33:46;101118.13;;;1.97;54.05
15817;BME280;8009;50.070;8.232;2023-02-28T00:36:18;101113.47;;;2.07;54.01
15817;BME280;8009;50.070;8.232;2023-02-28T00:38:47;101117.28;;;1.95;54.20
15817;BME280;8009;50.070;8.232;2023-02-28T00:41:15;101118.34;;;1.88;54.39
15817;BME280;8009;50.070;8.232;2023-02-28T00:43:44;101110.47;;;1.82;54.42
15817;BME280;8009;50.070;8.232;2023-02-28T00:46:12;101121.16;;;1.80;54.62
15817;BME280;8009;50.070;8.232;2023-02-28T00:48:40;101116.81;;;1.76;54.96
15817;BME280;8009;50.070;8.232;2023-02-28T00:51:08;101118.50;;;1.80;54.79
15817;BME280;8009;50.070;8.232;2023-02-28T00:53:39;101109.69;;;1.77;54.96
15817;BME280;8009;50.070;8.232;2023-02-28T00:56:08;101110.47;;;1.82;54.99
15817;BME280;8009;50.070;8.232;2023-02-28T00:58:36;101109.66;;;1.78;54.83
15817;BME280;8009;50.070;8.232;2023-02-28T01:01:04;101111.56;;;1.73;55.27
15817;BME280;8009;50.070;8.232;2023-02-28T01:03:33;101113.97;;;1.84;55.02
15817;BME280;8009;50.070;8.232;2023-02-28T01:06:01;101110.78;;;1.68;55.66
15817;BME280;8009;50.070;8.232;2023-02-28T01:08:30;101114.31;;;1.68;55.45
15817;BME280;8009;50.070;8.232;2023-02-28T01:11:07;101107.31;;;1.64;55.81
15817;BME280;8009;50.070;8.232;2023-02-28T01:13:35;101113.56;;;1.62;55.80
15817;BME280;8009;50.070;8.232;2023-02-28T01:16:05;101110.78;;;1.66;56.23
15817;BME280;8009;50.070;8.232;2023-02-28T01:18:33;101116.50;;;1.48;56.27
15817;BME280;8009;50.070;8.232;2023-02-28T01:21:03;101107.78;;;1.41;56.88
15817;BME280;8009;50.070;8.232;2023-02-28T01:23:32;101111.03;;;1.56;56.23
15817;BME280;8009;50.070;8.232;2023-02-28T01:26:06;101104.81;;;1.57;56.62
15817;BME280;8009;50.070;8.232;2023-02-28T01:28:35;101098.78;;;1.47;56.55
15817;BME280;8009;50.070;8.232;2023-02-28T01:31:04;101107.78;;;1.41;57.04
15817;BME280;8009;50.070;8.232;2023-02-28T01:33:33;101101.34;;;1.52;56.85
15817;BME280;8009;50.070;8.232;2023-02-28T01:36:02;101102.41;;;1.43;57.48
15817;BME280;8009;50.070;8.232;2023-02-28T01:38:32;101107.69;;;1.44;57.08
15817;BME280;8009;50.070;8.232;2023-02-28T01:41:01;101103.28;;;1.43;57.42
15817;BME280;8009;50.070;8.232;2023-02-28T01:43:52;101105.13;;;1.41;57.36
15817;BME280;8009;50.070;8.232;2023-02-28T01:46:21;101107.09;;;1.32;57.98
15817;BME280;8009;50.070;8.232;2023-02-28T01:48:51;101098.84;;;1.45;57.37
15817;BME280;8009;50.070;8.232;2023-02-28T01:51:22;101100.72;;;1.39;57.78
15817;BME280;8009;50.070;8.232;2023-02-28T01:54:00;101099.16;;;1.30;58.33
15817;BME280;8009;50.070;8.232;2023-02-28T01:56:33;101100.13;;;1.25;58.28
15817;BME280;8009;50.070;8.232;2023-02-28T01:59:09;101102.22;;;1.09;58.88
15817;BME280;8009;50.070;8.232;2023-02-28T02:01:38;101083.75;;;1.01;59.18
15817;BME280;8009;50.070;8.232;2023-02-28T02:04:06;101087.69;;;1.27;58.28
15817;BME280;8009;50.070;8.232;2023-02-28T02:06:38;101093.88;;;1.26;58.21
15817;BME280;8009;50.070;8.232;2023-02-28T02:09:07;101087.53;;;1.33;58.05
15817;BME280;8009;50.070;8.232;2023-02-28T02:11:39;101084.78;;;1.37;57.81
15817;BME280;8009;50.070;8.232;2023-02-28T02:14:47;101077.88;;;1.29;58.02
15817;BME280;8009;50.070;8.232;2023-02-28T02:17:28;101081.69;;;1.15;58.16
15817;BME280;8009;50.070;8.232;2023-02-28T02:29:43;101066.31;;;1.30;57.72
15817;BME280;8009;50.070;8.232;2023-02-28T02:32:45;101071.34;;;1.43;57.13
15817;BME280;8009;50.070;8.232;2023-02-28T02:35:23;101077.91;;;1.26;57.75
15817;BME280;8009;50.070;8.232;2023-02-28T02:37:58;101073.72;;;1.15;57.40
15817;BME280;8009;50.070;8.232;2023-02-28T02:40:39;101077.34;;;1.11;57.80
15817;BME280;8009;50.070;8.232;2023-02-28T02:43:14;101088.81;;;1.13;57.25
15817;BME280;8009;50.070;8.232;2023-02-28T02:45:47;101079.16;;;1.09;57.77
15817;BME280;8009;50.070;8.232;2023-02-28T02:48:19;101076.13;;;1.28;56.72
15817;BME280;8009;50.070;8.232;2023-02-28T02:50:55;101081.72;;;1.14;56.83
15817;BME280;8009;50.070;8.232;2023-02-28T02:53:29;101080.72;;;1.19;56.51
15817;BME280;8009;50.070;8.232;2023-02-28T02:56:01;101077.41;;;1.08;56.76
15817;BME280;8009;50.070;8.232;2023-02-28T02:58:34;101082.69;;;1.10;56.29
15817;BME280;8009;50.070;8.232;2023-02-28T03:01:08;101079.81;;;1.20;56.05
15817;BME280;8009;50.070;8.232;2023-02-28T03:03:38;101083.28;;;1.24;55.88
15817;BME280;8009;50.070;8.232;2023-02-28T03:06:10;101082.63;;;1.13;55.80
15817;BME280;8009;50.070;8.232;2023-02-28T03:08:38;101083.44;;;1.16;55.99
15817;BME280;8009;50.070;8.232;2023-02-28T03:11:11;101080.97;;;1.07;55.82
15817;BME280;8009;50.070;8.232;2023-02-28T03:13:54;101090.69;;;1.08;55.91
15817;BME280;8009;50.070;8.232;2023-02-28T03:16:49;101085.38;;;1.07;55.76
15817;BME280;8009;50.070;8.232;2023-02-28T03:19:31;101084.81;;;0.91;56.05
15817;BME280;8009;50.070;8.232;2023-02-28T03:22:13;101080.94;;;1.09;55.63
15817;BME280;8009;50.070;8.232;2023-02-28T03:24:47;101076.78;;;0.95;55.82
15817;BME280;8009;50.070;8.232;2023-02-28T03:27:23;101082.09;;;0.94;56.05
15817;BME280;8009;50.070;8.232;2023-02-28T03:29:58;101085.44;;;1.05;55.87
15817;BME280;8009;50.070;8.232;2023-02-28T03:32:31;101075.03;;;0.93;55.60
15817;BME280;8009;50.070;8.232;2023-02-28T03:35:06;101082.56;;;0.69;56.79
15817;BME280;8009;50.070;8.232;2023-02-28T03:37:42;101087.59;;;0.83;56.72
15817;BME280;8009;50.070;8.232;2023-02-28T03:40:14;101080.66;;;0.76;56.55
15817;BME280;8009;50.070;8.232;2023-02-28T03:42:46;101082.09;;;0.95;56.12
15817;BME280;8009;50.070;8.232;2023-02-28T03:45:19;101084.06;;;0.83;56.25
15817;BME280;8009;50.070;8.232;2023-02-28T03:47:52;101090.34;;;0.79;56.47
15817;BME280;8009;50.070;8.232;2023-02-28T03:50:23;101077.88;;;0.82;56.24
15817;BME280;8009;50.070;8.232;2023-02-28T03:53:00;101083.13;;;0.87;55.89
15817;BME280;8009;50.070;8.232;2023-02-28T03:55:34;101083.03;;;0.91;55.69
15817;BME280;8009;50.070;8.232;2023-02-28T03:58:14;101084.06;;;0.83;56.02
15817;BME280;8009;50.070;8.232;2023-02-28T04:00:47;101073.44;;;0.83;56.10
15817;BME280;8009;50.070;8.232;2023-02-28T04:03:17;101082.72;;;0.60;56.77
15817;BME280;8009;50.070;8.232;2023-02-28T04:05:51;101093.06;;;0.76;55.83
15817;BME280;8009;50.070;8.232;2023-02-28T04:08:22;101085.63;;;0.94;55.24
15817;BME280;8009;50.070;8.232;2023-02-28T04:10:55;101090.63;;;0.63;55.94
15817;BME280;8009;50.070;8.232;2023-02-28T04:13:27;101084.16;;;0.78;55.57
15817;BME280;8009;50.070;8.232;2023-02-28T04:15:56;101084.13;;;0.80;55.21
15817;BME280;8009;50.070;8.232;2023-02-28T04:18:24;101086.59;;;0.90;54.96
15817;BME280;8009;50.070;8.232;2023-02-28T04:20:52;101093.94;;;0.76;55.22
15817;BME280;8009;50.070;8.232;2023-02-28T04:23:26;101090.69;;;0.62;55.41
15817;BME280;8009;50.070;8.232;2023-02-28T04:25:54;101077.78;;;0.88;54.60
15817;BME280;8009;50.070;8.232;2023-02-28T04:28:23;101085.28;;;0.66;54.51
15817;BME280;8009;50.070;8.232;2023-02-28T04:30:57;101080.50;;;0.85;54.12
15817;BME280;8009;50.070;8.232;2023-02-28T04:33:26;101077.06;;;0.79;54.53
15817;BME280;8009;50.070;8.232;2023-02-28T04:35:58;101085.22;;;0.69;54.24
15817;BME280;8009;50.070;8.232;2023-02-28T04:38:32;101086.00;;;0.75;54.29
15817;BME280;8009;50.070;8.232;2023-02-28T04:41:01;101086.00;;;0.75;54.42
15817;BME280;8009;50.070;8.232;2023-02-28T04:43:30;101081.75;;;0.64;54.55
15817;BME280;8009;50.070;8.232;2023-02-28T04:46:01;101086.44;;;0.50;54.66
15817;BME280;8009;50.070;8.232;2023-02-28T04:48:32;101084.50;;;0.60;54.64
15817;BME280;8009;50.070;8.232;2023-02-28T04:51:01;101088.72;;;0.73;54.41
15817;BME280;8009;50.070;8.232;2023-02-28T04:53:32;101088.75;;;0.70;54.60
15817;BME280;8009;50.070;8.232;2023-02-28T04:56:01;101090.50;;;0.71;54.33
15817;BME280;8009;50.070;8.232;2023-02-28T04:58:30;101085.03;;;0.80;54.35
15817;BME280;8009;50.070;8.232;2023-02-28T05:01:02;101085.44;;;0.56;54.72
15817;BME280;8009;50.070;8.232;2023-02-28T05:03:38;101089.72;;;0.64;54.69
15817;BME280;8009;50.070;8.232;2023-02-28T05:06:06;101085.75;;;0.39;55.38
15817;BME280;8009;50.070;8.232;2023-02-28T05:08:37;101092.47;;;0.61;55.00
15817;BME280;8009;50.070;8.232;2023-02-28T05:11:07;101088.72;;;0.71;54.45
15817;BME280;8009;50.070;8.232;2023-02-28T05:13:37;101095.25;;;0.54;55.44
15817;BME280;8009;50.070;8.232;2023-02-28T05:16:06;101095.66;;;0.80;54.64
15817;BME280;8009;50.070;8.232;2023-02-28T05:18:35;101099.44;;;0.67;54.54
15817;BME280;8009;50.070;8.232;2023-02-28T05:21:04;101091.78;;;0.48;55.61
15817;BME280;8009;50.070;8.232;2023-02-28T05:23:32;101099.22;;;0.27;56.05
15817;BME280;8009;50.070;8.232;2023-02-28T05:26:04;101091.56;;;0.62;55.38
15817;BME280;8009;50.070;8.232;2023-02-28T05:28:32;101099.44;;;0.67;55.18
15817;BME280;8009;50.070;8.232;2023-02-28T05:31:01;101100.44;;;0.60;55.21
15817;BME280;8009;50.070;8.232;2023-02-28T05:33:30;101101.47;;;0.51;55.61
15817;BME280;8009;50.070;8.232;2023-02-28T05:35:58;101100.09;;;0.80;55.18
15817;BME280;8009;50.070;8.232;2023-02-28T05:38:26;101096.25;;;0.46;55.61
15817;BME280;8009;50.070;8.232;2023-02-28T05:40:55;101102.13;;;0.64;55.43
15817;BME280;8009;50.070;8.232;2023-02-28T05:43:26;101094.50;;;0.44;55.49
15817;BME280;8009;50.070;8.232;2023-02-28T05:45:54;101100.47;;;0.58;55.45
15817;BME280;8009;50.070;8.232;2023-02-28T05:48:22;101099.47;;;0.65;54.92
15817;BME280;8009;50.070;8.232;2023-02-28T05:50:51;101092.47;;;0.61;54.99
15817;BME280;8009;50.070;8.232;2023-02-28T05:53:19;101102.22;;;0.59;54.87
15817;BME280;8009;50.070;8.232;2023-02-28T05:55:49;101097.75;;;0.63;54.90
15817;BME280;8009;50.070;8.232;2023-02-28T05:58:17;101099.34;;;0.71;54.93
15817;BME280;8009;50.070;8.232;2023-02-28T06:00:48;101091.19;;;0.82;54.21
15817;BME280;8009;50.070;8.232;2023-02-28T06:03:17;101104.72;;;0.68;54.80
15817;BME280;8009;50.070;8.232;2023-02-28T06:05:45;101109.19;;;0.66;54.78
15817;BME280;8009;50.070;8.232;2023-02-28T06:08:13;101109.00;;;0.77;54.60
15817;BME280;8009;50.070;8.232;2023-02-28T06:10:45;101107.78;;;0.95;54.08
15817;BME280;8009;50.070;8.232;2023-02-28T06:13:14;101101.22;;;0.65;54.71
15817;BME280;8009;50.070;8.232;2023-02-28T06:15:42;101112.06;;;0.53;54.58
15817;BME280;8009;50.070;8.232;2023-02-28T06:18:13;101113.59;;;0.69;54.77
15817;BME280;8009;50.070;8.232;2023-02-28T06:20:42;101120.53;;;0.78;54.46
15817;BME280;8009;50.070;8.232;2023-02-28T06:23:10;101115.91;;;0.87;53.98
15817;BME280;8009;50.070;8.232;2023-02-28T06:25:38;101118.09;;;0.65;55.08
15817;BME280;8009;50.070;8.232;2023-02-28T06:28:07;101121.56;;;0.69;54.65
15817;BME280;8009;50.070;8.232;2023-02-28T06:30:36;101118.09;;;0.64;54.74
15817;BME280;8009;50.070;8.232;2023-02-28T06:33:05;101119.00;;;0.63;54.67
15817;BME280;8009;50.070;8.232;2023-02-28T06:35:36;101117.94;;;0.73;53.55
15817;BME280;8009;50.070;8.232;2023-02-28T06:38:06;101123.28;;;0.71;53.66
15817;BME280;8009;50.070;8.232;2023-02-28T06:40:36;101123.22;;;0.75;53.46
15817;BME280;8009;50.070;8.232;2023-02-28T06:43:04;101124.56;;;0.98;52.40
15817;BME280;8009;50.070;8.232;2023-02-28T06:45:32;101122.97;;;0.90;52.32
15817;BME280;8009;50.070;8.232;2023-02-28T06:48:01;101123.59;;;1.04;52.14
15817;BME280;8009;50.070;8.232;2023-02-28T06:50:31;101122.03;;;0.91;52.04
15817;BME280;8009;50.070;8.232;2023-02-28T06:53:04;101124.66;;;0.94;51.26
15817;BME280;8009;50.070;8.232;2023-02-28T06:55:33;101125.19;;;1.13;50.51
15817;BME280;8009;50.070;8.232;2023-02-28T06:58:01;101132.16;;;1.20;50.05
15817;BME280;8009;50.070;8.232;2023-02-28T07:00:40;101137.94;;;0.95;50.38
15817;BME280;8009;50.070;8.232;2023-02-28T07:03:09;101131.44;;;1.10;50.02
15817;BME280;8009;50.070;8.232;2023-02-28T07:05:38;101137.84;;;0.98;49.66
15817;BME280;8009;50.070;8.232;2023-02-28T07:08:09;101134.84;;;1.17;48.75
15817;BME280;8009;50.070;8.232;2023-02-28T07:10:38;101133.06;;;1.19;48.44
15817;BME280;8009;50.070;8.232;2023-02-28T07:13:08;101130.25;;;1.27;48.88
15817;BME280;8009;50.070;8.232;2023-02-28T07:15:37;101130.97;;;1.35;48.18
15817;BME280;8009;50.070;8.232;2023-02-28T07:18:07;101133.59;;;1.38;48.01
15817;BME280;8009;50.070;8.232;2023-02-28T07:20:41;101144.34;;;1.32;48.16
15817;BME280;8009;50.070;8.232;2023-02-28T07:26:31;101143.47;;;1.31;47.42
15817;BME280;8009;50.070;8.232;2023-02-28T07:32:11;101143.91;;;1.53;46.60
15817;BME280;8009;50.070;8.232;2023-02-28T07:34:39;101143.16;;;1.46;47.04
15817;BME280;8009;50.070;8.232;2023-02-28T07:37:10;101144.94;;;1.46;46.65
15817;BME280;8009;50.070;8.232;2023-02-28T07:39:38;101148.59;;;1.42;46.39
15817;BME280;8009;50.070;8.232;2023-02-28T07:42:10;101138.56;;;1.55;46.85
15817;BME280;8009;50.070;8.232;2023-02-28T07:44:38;101140.66;;;1.37;46.63
15817;BME280;8009;50.070;8.232;2023-02-28T07:47:08;101144.94;;;1.46;45.99
15817;BME280;8009;50.070;8.232;2023-02-28T07:49:37;101145.63;;;1.57;45.59
15817;BME280;8009;50.070;8.232;2023-02-28T07:52:06;101135.63;;;1.68;45.17
15817;BME280;8009;50.070;8.232;2023-02-28T07:54:35;101139.94;;;1.74;45.15
15817;BME280;8009;50.070;8.232;2023-02-28T07:57:03;101143.41;;;1.78;44.17
15817;BME280;8009;50.070;8.232;2023-02-28T07:59:34;101146.34;;;1.64;44.98
15817;BME280;8009;50.070;8.232;2023-02-28T08:02:02;101144.41;;;1.72;45.02
15817;BME280;8009;50.070;8.232;2023-02-28T08:04:31;101136.44;;;1.70;44.70
15817;BME280;8009;50.070;8.232;2023-02-28T08:07:00;101149.16;;;1.56;45.25
15817;BME280;8009;50.070;8.232;2023-02-28T08:09:29;101149.97;;;1.61;45.09
15817;BME280;8009;50.070;8.232;2023-02-28T08:11:59;101149.69;;;1.74;45.09
15817;BME280;8009;50.070;8.232;2023-02-28T08:14:28;101140.56;;;1.85;45.19
15817;BME280;8009;50.070;8.232;2023-02-28T08:16:59;101142.69;;;1.69;45.52
15817;BME280;8009;50.070;8.232;2023-02-28T08:19:27;101134.19;;;1.92;45.65
15817;BME280;8009;50.070;8.232;2023-02-28T08:21:56;101157.47;;;1.84;45.67
15817;BME280;8009;50.070;8.232;2023-02-28T08:24:25;101156.59;;;1.84;46.08
15817;BME280;8009;50.070;8.232;2023-02-28T08:26:53;101157.19;;;1.97;45.45
15817;BME280;8009;50.070;8.232;2023-02-28T08:29:25;101156.09;;;2.07;45.52
15817;BME280;8009;50.070;8.232;2023-02-28T08:31:54;101154.94;;;2.18;45.54
15817;BME280;8009;50.070;8.232;2023-02-28T08:34:28;101151.56;;;2.10;45.43
15817;BME280;8009;50.070;8.232;2023-02-28T08:36:57;101149.97;;;2.02;45.74
15817;BME280;8009;50.070;8.232;2023-02-28T08:39:26;101154.59;;;2.32;45.32
15817;BME280;8009;50.070;8.232;2023-02-28T08:41:54;101156.22;;;2.39;45.01
15817;BME280;8009;50.070;8.232;2023-02-28T08:44:22;101168.59;;;2.42;44.92
15817;BME280;8009;50.070;8.232;2023-02-28T08:46:50;101153.47;;;2.42;44.54
15817;BME280;8009;50.070;8.232;2023-02-28T08:49:19;101158.75;;;2.44;44.05
15817;BME280;8009;50.070;8.232;2023-02-28T08:51:50;101155.91;;;2.52;44.76
15817;BME280;8009;50.070;8.232;2023-02-28T08:54:19;101158.44;;;2.20;44.60
15817;BME280;8009;50.070;8.232;2023-02-28T08:56:48;101153.53;;;2.41;44.86
15817;BME280;8009;50.070;8.232;2023-02-28T08:59:16;101160.84;;;2.31;45.24
15817;BME280;8009;50.070;8.232;2023-02-28T09:01:45;101163.81;;;2.19;45.39
15817;BME280;8009;50.070;8.232;2023-02-28T09:04:17;101170.69;;;2.28;45.55
15817;BME280;8009;50.070;8.232;2023-02-28T09:06:45;101180.03;;;2.08;46.03
15817;BME280;8009;50.070;8.232;2023-02-28T09:09:18;101165.72;;;2.14;45.96
15817;BME280;8009;50.070;8.232;2023-02-28T09:11:49;101161.59;;;2.36;45.87
15817;BME280;8009;50.070;8.232;2023-02-28T09:14:17;101160.34;;;2.53;45.31
15817;BME280;8009;50.070;8.232;2023-02-28T09:16:45;101163.03;;;2.53;45.91
15817;BME280;8009;50.070;8.232;2023-02-28T09:19:16;101165.47;;;2.62;45.78
15817;BME280;8009;50.070;8.232;2023-02-28T09:21:47;101150.41;;;2.59;45.38
15817;BME280;8009;50.070;8.232;2023-02-28T09:24:18;101143.09;;;2.67;45.74
15817;BME280;8009;50.070;8.232;2023-02-28T09:26:47;101159.44;;;2.54;45.68
15817;BME280;8009;50.070;8.232;2023-02-28T09:29:15;101155.16;;;2.82;45.50
15817;BME280;8009;50.070;8.232;2023-02-28T09:31:43;101155.59;;;2.65;45.95
15817;BME280;8009;50.070;8.232;2023-02-28T09:34:12;101157.94;;;2.79;45.86
15817;BME280;8009;50.070;8.232;2023-02-28T09:36:45;101151.13;;;2.67;45.51
15817;BME280;8009;50.070;8.232;2023-02-28T09:39:21;101161.78;;;2.66;45.06
15817;BME280;8009;50.070;8.232;2023-02-28T09:41:52;101141.78;;;2.84;44.54
15817;BME280;8009;50.070;8.232;2023-02-28T09:44:30;101161.22;;;2.89;44.42
15817;BME280;8009;50.070;8.232;2023-02-28T09:47:04;101153.41;;;2.83;44.26
15817;BME280;8009;50.070;8.232;2023-02-28T09:49:39;101162.59;;;3.05;43.59
15817;BME280;8009;50.070;8.232;2023-02-28T09:52:13;101162.22;;;3.19;43.37
15817;BME280;8009;50.070;8.232;2023-02-28T09:54:47;101163.75;;;2.93;43.39
15817;BME280;8009;50.070;8.232;2023-02-28T09:57:19;101147.56;;;3.34;43.06
15817;BME280;8009;50.070;8.232;2023-02-28T10:00:04;101154.06;;;2.91;43.50
15817;BME280;8009;50.070;8.232;2023-02-28T10:02:49;101158.75;;;2.81;43.24
15817;BME280;8009;50.070;8.232;2023-02-28T10:05:22;101159.06;;;2.69;43.58
15817;BME280;8009;50.070;8.232;2023-02-28T10:08:01;101160.97;;;2.64;43.93
15817;BME280;8009;50.070;8.232;2023-02-28T10:10:38;101161.47;;;2.78;43.78
15817;BME280;8009;50.070;8.232;2023-02-28T10:13:14;101158.53;;;2.90;44.00
15817;BME280;8009;50.070;8.232;2023-02-28T10:15:46;101166.44;;;2.93;43.68
15817;BME280;8009;50.070;8.232;2023-02-28T10:18:21;101167.34;;;2.94;43.61
15817;BME280;8009;50.070;8.232;2023-02-28T10:20:51;101166.63;;;2.86;43.25
15817;BME280;8009;50.070;8.232;2023-02-28T10:23:24;101169.41;;;2.81;43.30
15817;BME280;8009;50.070;8.232;2023-02-28T10:25:59;101176.31;;;2.90;43.05
15817;BME280;8009;50.070;8.232;2023-02-28T10:28:29;101168.25;;;2.57;43.63
15817;BME280;8009;50.070;8.232;2023-02-28T10:30:59;101165.13;;;2.76;43.41
15817;BME280;8009;50.070;8.232;2023-02-28T10:33:30;101173.00;;;2.80;43.13
15817;BME280;8009;50.070;8.232;2023-02-28T10:36:00;101172.28;;;3.08;42.97
15817;BME280;8009;50.070;8.232;2023-02-28T10:38:33;101166.59;;;3.22;42.93
15817;BME280;8009;50.070;8.232;2023-02-28T10:41:09;101174.16;;;3.04;42.48
15817;BME280;8009;50.070;8.232;2023-02-28T10:43:39;101175.03;;;3.05;42.26
15817;BME280;8009;50.070;8.232;2023-02-28T10:46:13;101159.38;;;3.25;41.70
15817;BME280;8009;50.070;8.232;2023-02-28T10:49:01;101165.59;;;3.26;41.46
15817;BME280;8009;50.070;8.232;2023-02-28T10:51:35;101173.88;;;3.15;42.17
15817;BME280;8009;50.070;8.232;2023-02-28T10:54:04;101167.59;;;3.17;41.96
15817;BME280;8009;50.070;8.232;2023-02-28T10:56:35;101174.03;;;3.10;42.31
15817;BME280;8009;50.070;8.232;2023-02-28T10:59:26;101155.34;;;3.10;42.18
15817;BME280;8009;50.070;8.232;2023-02-28T11:01:55;101156.84;;;3.21;42.47
15817;BME280;8009;50.070;8.232;2023-02-28T11:04:35;101158.47;;;3.26;41.96
15817;BME280;8009;50.070;8.232;2023-02-28T11:07:16;101147.41;;;3.40;41.75
15817;BME280;8009;50.070;8.232;2023-02-28T11:09:46;101151.13;;;3.65;41.76
15817;BME280;8009;50.070;8.232;2023-02-28T11:12:26;101140.50;;;3.33;42.03
15817;BME280;8009;50.070;8.232;2023-02-28T11:15:18;101141.72;;;3.52;41.82
15817;BME280;8009;50.070;8.232;2023-02-28T11:17:53;101127.28;;;3.59;41.65
15817;BME280;8009;50.070;8.232;2023-02-28T11:20:26;101136.44;;;3.18;42.35
15817;BME280;8009;50.070;8.232;2023-02-28T11:22:56;101123.34;;;3.41;41.80
15817;BME280;8009;50.070;8.232;2023-02-28T11:25:29;101124.03;;;3.48;42.05
15817;BME280;8009;50.070;8.232;2023-02-28T11:28:02;101122.72;;;3.63;41.48
15817;BME280;8009;50.070;8.232;2023-02-28T11:30:34;101126.78;;;3.45;41.53
15817;BME280;8009;50.070;8.232;2023-02-28T11:33:21;101113.22;;;3.53;42.05
15817;BME280;8009;50.070;8.232;2023-02-28T11:35:51;101119.94;;;3.36;41.51
15817;BME280;8009;50.070;8.232;2023-02-28T11:38:20;101117.13;;;3.41;41.89
15817;BME280;8009;50.070;8.232;2023-02-28T11:40:59;101118.84;;;3.73;41.58
15817;BME280;8009;50.070;8.232;2023-02-28T11:43:40;101118.63;;;3.81;41.28
15817;BME280;8009;50.070;8.232;2023-02-28T11:46:20;101111.72;;;3.42;41.29
15817;BME280;8009;50.070;8.232;2023-02-28T11:48:58;101103.03;;;3.65;41.18
15817;BME280;8009;50.070;8.232;2023-02-28T11:51:34;101106.47;;;3.71;41.02
15817;BME280;8009;50.070;8.232;2023-02-28T11:54:23;101110.03;;;3.71;41.02
15817;BME280;8009;50.070;8.232;2023-02-28T11:56:59;101114.44;;;4.02;40.48
15817;BME280;8009;50.070;8.232;2023-02-28T11:59:39;101101.00;;;4.03;40.23
15817;BME280;8009;50.070;8.232;2023-02-28T12:02:23;101095.69;;;4.31;40.41
15817;BME280;8009;50.070;8.232;2023-02-28T12:05:08;101097.25;;;4.37;40.12
15817;BME280;8009;50.070;8.232;2023-02-28T12:07:49;101098.66;;;4.49;39.51
15817;BME280;8009;50.070;8.232;2023-02-28T12:10:26;101101.53;;;4.16;39.70
15817;BME280;8009;50.070;8.232;2023-02-28T12:16:36;101098.63;;;3.94;39.98
15817;BME280;8009;50.070;8.232;2023-02-28T12:19:17;101099.72;;;4.17;39.38
15817;BME280;8009;50.070;8.232;2023-02-28T12:28:14;101091.53;;;4.21;39.71
15817;BME280;8009;50.070;8.232;2023-02-28T12:30:50;101101.78;;;4.07;39.77
15817;BME280;8009;50.070;8.232;2023-02-28T12:33:25;101094.38;;;4.17;39.51
15817;BME280;8009;50.070;8.232;2023-02-28T12:35:57;101089.13;;;4.13;39.12
15817;BME280;8009;50.070;8.232;2023-02-28T12:38:33;101085.00;;;4.58;38.68
15817;BME280;8009;50.070;8.232;2023-02-28T12:41:05;101086.06;;;4.52;38.94
15817;BME280;8009;50.070;8.232;2023-02-28T12:43:40;101084.81;;;4.36;39.23
15817;BME280;8009;50.070;8.232;2023-02-28T12:46:15;101093.50;;;4.43;39.21
15817;BME280;8009;50.070;8.232;2023-02-28T12:48:50;101088.47;;;4.33;39.09
15817;BME280;8009;50.070;8.232;2023-02-28T12:51:21;101084.00;;;4.60;39.32
15817;BME280;8009;50.070;8.232;2023-02-28T12:53:57;101089.44;;;4.57;38.74
15817;BME280;8009;50.070;8.232;2023-02-28T12:56:36;101091.72;;;4.70;39.14
15817;BME280;8009;50.070;8.232;2023-02-28T12:59:14;101091.72;;;4.43;38.95
15817;BME280;8009;50.070;8.232;2023-02-28T13:02:00;101086.25;;;4.46;39.47
15817;BME280;8009;50.070;8.232;2023-02-28T13:05:04;101072.06;;;4.44;39.13
15817;BME280;8009;50.070;8.232;2023-02-28T13:07:53;101084.78;;;4.64;38.47
15817;BME280;8009;50.070;8.232;2023-02-28T13:10:38;101078.34;;;4.70;38.71
15817;BME280;8009;50.070;8.232;2023-02-28T13:13:14;101074.25;;;4.84;38.25
15817;BME280;8009;50.070;8.232;2023-02-28T13:15:59;101075.94;;;4.87;38.24
15817;BME280;8009;50.070;8.232;2023-02-28T13:18:34;101070.97;;;4.50;38.20
15817;BME280;8009;50.070;8.232;2023-02-28T13:21:09;101076.13;;;4.56;38.68
15817;BME280;8009;50.070;8.232;2023-02-28T13:23:56;101073.56;;;4.53;38.39
15817;BME280;8009;50.070;8.232;2023-02-28T13:29:30;101068.97;;;4.83;38.45
15817;BME280;8009;50.070;8.232;2023-02-28T13:32:31;101070.84;;;4.81;38.66
15817;BME280;8009;50.070;8.232;2023-02-28T13:35:17;101077.84;;;4.58;39.26
15817;BME280;8009;50.070;8.232;2023-02-28T13:38:32;101071.91;;;4.75;38.60
15817;BME280;8009;50.070;8.232;2023-02-28T13:44:03;101070.69;;;4.59;39.00
15817;BME280;8009;50.070;8.232;2023-02-28T13:46:32;101072.25;;;4.64;38.97
15817;BME280;8009;50.070;8.232;2023-02-28T13:49:19;101055.31;;;4.91;38.89
15817;BME280;8009;50.070;8.232;2023-02-28T13:51:49;101057.00;;;4.93;38.26
15817;BME280;8009;50.070;8.232;2023-02-28T13:54:33;101061.53;;;4.91;38.35
15817;BME280;8009;50.070;8.232;2023-02-28T13:57:15;101063.22;;;4.94;38.48
15817;BME280;8009;50.070;8.232;2023-02-28T13:59:58;101070.31;;;4.70;38.57
15817;BME280;8009;50.070;8.232;2023-02-28T14:02:50;101058.25;;;4.83;38.29
15817;BME280;8009;50.070;8.232;2023-02-28T14:05:22;101052.38;;;5.22;38.05
15817;BME280;8009;50.070;8.232;2023-02-28T14:07:54;101040.34;;;5.33;37.71
15817;BME280;8009;50.070;8.232;2023-02-28T14:10:28;101048.53;;;5.30;37.94
15817;BME280;8009;50.070;8.232;2023-02-28T14:13:00;101062.78;;;5.06;38.80